Time;durP1;ratioP1;P1;durP2;ratioP2;P2;SDS_P1;SDS_P2;PMS_P1;PMS_P2;Temp;Humidity;BMP_temperature;BMP_pressure;BME280_temperature;BME280_humidity;BME280_pressure;Samples;Min_cycle;Max_cycle;Signal;HPM_P1;HPM_P2
2022/04/24 00:03:34;;;;;;;4.30;3.47;;;12.40;99.90;;;;;;7320257;32;20210;-62
2022/04/24 00:07:36;;;;;;;5.70;3.42;;;12.40;99.90;;;;;;7291885;32;20387;-59
2022/04/24 00:11:37;;;;;;;4.40;3.58;;;12.30;99.90;;;;;;7319651;32;20107;-59
2022/04/24 00:15:39;;;;;;;4.03;3.22;;;12.20;99.90;;;;;;7312721;32;20258;-59
2022/04/24 00:19:41;;;;;;;4.82;3.40;;;12.10;99.90;;;;;;7301908;32;21988;-60
2022/04/24 00:23:43;;;;;;;4.35;3.22;;;12.00;99.90;;;;;;7323671;32;20492;-60
2022/04/24 00:27:45;;;;;;;3.95;3.55;;;11.90;99.90;;;;;;7316267;32;20111;-60
2022/04/24 00:31:47;;;;;;;4.70;3.78;;;11.80;99.90;;;;;;7312900;32;20260;-61
2022/04/24 00:35:48;;;;;;;5.35;3.80;;;11.70;99.90;;;;;;7312996;32;20123;-60
2022/04/24 00:39:50;;;;;;;3.95;3.55;;;11.50;99.90;;;;;;7321496;32;20499;-60
2022/04/24 00:43:53;;;;;;;4.22;3.50;;;11.40;99.90;;;;;;7315683;32;20765;-61
2022/04/24 00:47:56;;;;;;;5.05;3.75;;;11.30;99.90;;;;;;7313086;32;20149;-60
2022/04/24 00:51:58;;;;;;;5.78;3.83;;;11.20;99.90;;;;;;7311856;32;20115;-59
2022/04/24 00:56:01;;;;;;;4.57;3.50;;;11.10;99.90;;;;;;7316263;32;20604;-58
2022/04/24 01:00:04;;;;;;;5.53;4.37;;;11.00;99.90;;;;;;7318697;32;20497;-60
2022/04/24 01:04:07;;;;;;;4.90;4.07;;;10.90;99.90;;;;;;7312017;32;20099;-59
2022/04/24 01:08:08;;;;;;;4.75;4.00;;;10.80;99.90;;;;;;7318751;32;20100;-60
2022/04/24 01:12:11;;;;;;;6.10;4.22;;;10.80;99.90;;;;;;7320322;32;20104;-59
2022/04/24 01:16:12;;;;;;;7.47;4.22;;;10.70;99.90;;;;;;7314842;32;20091;-58
2022/04/24 01:20:21;;;;;;;5.50;4.20;;;10.60;99.90;;;;;;7320565;32;20442;-62
2022/04/24 01:24:25;;;;;;;6.50;4.40;;;10.50;99.90;;;;;;7318508;32;20207;-60
2022/04/24 01:28:26;;;;;;;4.85;4.10;;;10.50;99.90;;;;;;7314620;32;20201;-59
2022/04/24 01:32:28;;;;;;;7.25;4.43;;;10.40;99.90;;;;;;7322536;32;20170;-59
2022/04/24 01:36:30;;;;;;;6.30;4.45;;;10.40;99.90;;;;;;7316917;32;20204;-59
2022/04/24 01:40:31;;;;;;;4.90;4.40;;;10.30;99.90;;;;;;7321070;32;20528;-59
2022/04/24 01:44:33;;;;;;;6.18;4.90;;;10.30;99.90;;;;;;7319965;32;20199;-60
2022/04/24 01:48:35;;;;;;;5.50;4.57;;;10.20;99.90;;;;;;7313929;32;20217;-60
2022/04/24 01:52:37;;;;;;;6.50;5.30;;;10.20;99.90;;;;;;7315645;32;20177;-59
2022/04/24 01:56:39;;;;;;;5.78;4.72;;;10.10;99.90;;;;;;7317555;32;20892;-59
2022/04/24 02:00:40;;;;;;;5.45;4.65;;;10.20;99.90;;;;;;7316338;32;20104;-60
2022/04/24 02:04:42;;;;;;;5.70;4.97;;;10.00;99.90;;;;;;7317036;32;20194;-60
2022/04/24 02:08:44;;;;;;;5.95;4.62;;;10.00;99.90;;;;;;7316254;32;20191;-59
2022/04/24 02:12:46;;;;;;;5.60;4.95;;;10.00;99.90;;;;;;7322656;32;20104;-60
2022/04/24 02:16:48;;;;;;;6.05;5.05;;;9.90;99.90;;;;;;7309666;32;20190;-59
2022/04/24 02:20:49;;;;;;;5.35;4.85;;;9.90;99.90;;;;;;7315882;32;20099;-60
2022/04/24 02:24:52;;;;;;;5.55;4.50;;;9.90;99.90;;;;;;7318609;32;20595;-59
2022/04/24 02:28:54;;;;;;;5.65;4.65;;;9.80;99.90;;;;;;7316367;32;20464;-58
2022/04/24 02:32:57;;;;;;;6.05;5.12;;;9.80;99.90;;;;;;7312770;32;20130;-58
2022/04/24 02:36:59;;;;;;;6.00;5.25;;;9.80;99.90;;;;;;7317321;32;20094;-60
2022/04/24 02:41:00;;;;;;;7.15;5.65;;;9.80;99.90;;;;;;7315361;32;20103;-59
2022/04/24 02:45:07;;;;;;;6.80;5.03;;;9.70;99.90;;;;;;7322256;32;20563;-60
2022/04/24 02:49:09;;;;;;;5.35;4.75;;;9.70;99.90;;;;;;7320967;32;20473;-59
2022/04/24 02:53:11;;;;;;;6.35;5.40;;;9.70;99.90;;;;;;7315609;32;20096;-60
2022/04/24 02:57:13;;;;;;;6.35;5.07;;;9.60;99.90;;;;;;7313282;32;20155;-60
2022/04/24 03:01:15;;;;;;;7.62;4.87;;;9.60;99.90;;;;;;7310300;32;20326;-61
2022/04/24 03:05:19;;;;;;;7.35;5.30;;;9.50;99.90;;;;;;7312526;32;20589;-60
2022/04/24 03:09:20;;;;;;;6.35;5.57;;;9.50;99.90;;;;;;7320808;32;20123;-60
2022/04/24 03:13:22;;;;;;;6.82;5.40;;;9.40;99.90;;;;;;7316513;32;20107;-61
2022/04/24 03:17:23;;;;;;;6.10;5.20;;;9.40;99.90;;;;;;7312992;32;20107;-61
2022/04/24 03:21:25;;;;;;;5.95;5.35;;;9.30;99.90;;;;;;7318843;32;20285;-60
2022/04/24 03:25:27;;;;;;;6.40;5.32;;;9.30;99.90;;;;;;7317375;32;20963;-61
2022/04/24 03:29:29;;;;;;;6.32;5.15;;;9.30;99.90;;;;;;7317099;32;20174;-60
2022/04/24 03:33:30;;;;;;;6.18;4.62;;;9.20;99.90;;;;;;7321220;32;20146;-60
2022/04/24 03:37:33;;;;;;;6.18;5.55;;;9.20;99.90;;;;;;7323179;32;20780;-60
2022/04/24 03:41:34;;;;;;;7.53;5.12;;;9.20;99.90;;;;;;7320350;32;20104;-60
2022/04/24 03:45:36;;;;;;;6.37;5.70;;;9.20;99.90;;;;;;7317745;32;20104;-61
2022/04/24 03:49:37;;;;;;;6.40;5.53;;;9.10;99.90;;;;;;7321215;32;20104;-60
2022/04/24 03:53:39;;;;;;;6.68;5.30;;;9.00;99.90;;;;;;7323913;32;20103;-60
2022/04/24 03:57:41;;;;;;;7.78;5.50;;;9.00;99.90;;;;;;7321722;32;20153;-60
2022/04/24 04:01:42;;;;;;;6.72;5.75;;;9.00;99.90;;;;;;7308833;32;20146;-60
2022/04/24 04:05:44;;;;;;;7.60;6.25;;;8.90;99.90;;;;;;7312045;32;20229;-60
2022/04/24 04:09:46;;;;;;;7.80;5.90;;;8.90;99.90;;;;;;7314683;32;20218;-60
2022/04/24 04:13:47;;;;;;;7.55;6.10;;;8.80;99.90;;;;;;7310326;32;20115;-59
2022/04/24 04:17:50;;;;;;;7.03;6.05;;;8.80;99.90;;;;;;7307763;32;20121;-60
2022/04/24 04:21:51;;;;;;;9.93;6.37;;;8.80;99.90;;;;;;7312253;32;22010;-60
2022/04/24 04:25:53;;;;;;;7.80;6.53;;;8.70;99.90;;;;;;7318543;32;20563;-60
2022/04/24 04:29:55;;;;;;;7.35;6.65;;;8.60;99.90;;;;;;7312873;32;20711;-60
2022/04/24 04:33:57;;;;;;;8.35;6.78;;;8.70;99.90;;;;;;7315113;32;20210;-60
2022/04/24 04:37:58;;;;;;;9.63;7.10;;;8.60;99.90;;;;;;7317180;32;20111;-60
2022/04/24 04:42:00;;;;;;;8.38;7.10;;;8.50;99.90;;;;;;7320616;32;20130;-60
2022/04/24 04:46:01;;;;;;;6.95;6.25;;;8.50;99.90;;;;;;7312938;32;20709;-60
2022/04/24 04:50:04;;;;;;;9.95;7.40;;;8.50;99.90;;;;;;7314188;32;20195;-60
2022/04/24 04:54:07;;;;;;;9.23;8.00;;;8.50;99.90;;;;;;7314654;32;20732;-60
2022/04/24 04:58:09;;;;;;;10.50;7.47;;;8.40;99.90;;;;;;7318676;32;20122;-60
2022/04/24 05:02:11;;;;;;;9.30;7.53;;;8.50;99.90;;;;;;7313855;32;20108;-60
2022/04/24 05:06:13;;;;;;;9.13;7.43;;;8.50;99.90;;;;;;7313703;32;20230;-60
2022/04/24 05:10:14;;;;;;;9.65;7.68;;;8.50;99.90;;;;;;7314647;32;20133;-59
2022/04/24 05:14:16;;;;;;;9.90;8.10;;;8.50;99.90;;;;;;7307242;32;20659;-59
2022/04/24 05:18:19;;;;;;;13.02;7.57;;;8.50;99.90;;;;;;7314005;32;20107;-61
2022/04/24 05:22:20;;;;;;;8.38;7.37;;;8.60;99.90;;;;;;7310483;32;20174;-60
2022/04/24 05:26:22;;;;;;;8.90;7.47;;;8.60;99.90;;;;;;7315870;32;20131;-60
2022/04/24 05:30:24;;;;;;;8.73;7.82;;;8.70;99.90;;;;;;7315910;32;20241;-60
2022/04/24 05:34:32;;;;;;;8.77;7.65;;;8.80;99.90;;;;;;7316906;32;20169;-60
2022/04/24 05:38:34;;;;;;;8.00;7.12;;;8.80;99.90;;;;;;7310864;32;20241;-59
2022/04/24 05:42:49;;;;;;;11.05;7.78;;;8.90;99.90;;;;;;7307523;32;20310;-59
2022/04/24 05:46:50;;;;;;;9.05;7.93;;;9.00;99.90;;;;;;7309546;32;20210;-60
2022/04/24 05:50:52;;;;;;;11.35;7.15;;;9.10;99.90;;;;;;7304974;32;20135;-60
2022/04/24 05:54:54;;;;;;;9.88;7.47;;;9.20;99.90;;;;;;7313658;32;20178;-60
2022/04/24 05:58:55;;;;;;;9.48;7.45;;;9.20;99.90;;;;;;7314127;32;20182;-61
2022/04/24 06:02:57;;;;;;;8.70;7.28;;;9.30;99.90;;;;;;7320428;32;20198;-60
2022/04/24 06:06:59;;;;;;;8.95;7.32;;;9.30;99.90;;;;;;7319870;32;20222;-61
2022/04/24 06:11:01;;;;;;;8.63;7.25;;;9.30;99.90;;;;;;7312103;32;20099;-61
2022/04/24 06:15:03;;;;;;;8.18;7.28;;;9.30;99.90;;;;;;7314700;32;20256;-61
2022/04/24 06:19:05;;;;;;;12.43;7.25;;;9.40;99.90;;;;;;7316490;32;20176;-59
2022/04/24 06:23:07;;;;;;;9.45;7.28;;;9.40;99.90;;;;;;7319799;32;20289;-59
2022/04/24 06:27:08;;;;;;;11.32;7.10;;;9.50;99.90;;;;;;7322219;32;20154;-60
2022/04/24 06:31:10;;;;;;;11.02;6.80;;;9.50;99.90;;;;;;7318670;32;20126;-60
2022/04/24 06:35:17;;;;;;;9.93;7.18;;;9.60;99.90;;;;;;7317589;32;20191;-62
2022/04/24 06:39:19;;;;;;;8.63;7.70;;;9.70;99.90;;;;;;7311626;32;20103;-62
2022/04/24 06:43:20;;;;;;;8.80;6.80;;;9.80;99.90;;;;;;7317437;32;20099;-62
2022/04/24 06:47:22;;;;;;;9.38;7.57;;;9.90;99.90;;;;;;7315979;32;20107;-61
2022/04/24 06:51:24;;;;;;;10.95;7.03;;;10.00;99.90;;;;;;7323120;32;20223;-63
2022/04/24 06:55:27;;;;;;;9.57;6.85;;;10.00;99.90;;;;;;7324270;32;20134;-62
2022/04/24 06:59:29;;;;;;;9.32;7.55;;;10.10;99.90;;;;;;7321632;32;20134;-63
2022/04/24 07:03:30;;;;;;;7.40;6.70;;;10.20;99.90;;;;;;7310457;32;20546;-62
2022/04/24 07:07:32;;;;;;;11.18;7.65;;;10.40;99.90;;;;;;7318288;32;20383;-65
2022/04/24 07:11:34;;;;;;;8.35;6.68;;;10.90;99.90;;;;;;7318527;32;20126;-62
2022/04/24 07:15:39;;;;;;;16.15;7.18;;;11.20;99.90;;;;;;7322671;32;20104;-64
2022/04/24 07:19:41;;;;;;;9.40;7.28;;;11.40;99.90;;;;;;7313992;32;20103;-62
2022/04/24 07:23:43;;;;;;;10.40;7.47;;;11.60;99.90;;;;;;7306703;32;20660;-63
2022/04/24 07:27:45;;;;;;;9.57;6.60;;;11.60;99.90;;;;;;7326792;32;20769;-63
2022/04/24 07:31:46;;;;;;;8.40;6.82;;;11.70;99.90;;;;;;7319525;32;20139;-62
2022/04/24 07:35:48;;;;;;;8.40;7.43;;;11.70;99.90;;;;;;7313885;32;20127;-60
2022/04/24 07:39:49;;;;;;;9.52;6.97;;;12.00;99.90;;;;;;7316824;32;20142;-60
2022/04/24 07:43:51;;;;;;;8.50;6.93;;;12.10;99.90;;;;;;7319314;32;20325;-61
2022/04/24 07:47:54;;;;;;;11.30;6.97;;;12.20;99.90;;;;;;7317005;32;20184;-63
2022/04/24 07:51:55;;;;;;;9.10;6.60;;;12.30;99.90;;;;;;7320049;32;20095;-63
2022/04/24 07:55:57;;;;;;;8.82;6.60;;;12.30;99.90;;;;;;7319635;32;20738;-62
2022/04/24 07:59:59;;;;;;;8.40;7.28;;;12.30;99.90;;;;;;7321852;32;20708;-62
2022/04/24 08:04:00;;;;;;;8.10;6.45;;;12.50;99.90;;;;;;7316539;32;20127;-62
2022/04/24 08:08:05;;;;;;;11.80;7.55;;;12.60;99.90;;;;;;7314769;32;20794;-62
2022/04/24 08:12:07;;;;;;;10.00;7.10;;;12.90;99.90;;;;;;7320310;32;20209;-62
2022/04/24 08:16:09;;;;;;;9.98;7.10;;;13.10;99.90;;;;;;7317473;32;20758;-62
2022/04/24 08:20:13;;;;;;;8.20;6.75;;;13.30;99.90;;;;;;7318079;32;20468;-64
2022/04/24 08:24:15;;;;;;;9.35;7.00;;;13.60;99.90;;;;;;7307139;32;20130;-62
2022/04/24 08:28:17;;;;;;;8.80;7.53;;;13.90;99.90;;;;;;7322778;32;20127;-62
2022/04/24 08:32:21;;;;;;;9.70;6.82;;;14.00;99.90;;;;;;7324885;32;20122;-63
2022/04/24 08:36:24;;;;;;;10.65;7.22;;;13.80;99.90;;;;;;7317423;32;20142;-63
2022/04/24 08:40:26;;;;;;;10.75;7.07;;;14.20;99.90;;;;;;7317028;32;20130;-63
2022/04/24 08:44:30;;;;;;;8.60;7.40;;;14.00;99.90;;;;;;7318703;32;20114;-62
2022/04/24 08:48:32;;;;;;;8.73;7.20;;;14.30;99.90;;;;;;7312811;32;20143;-63
2022/04/24 08:52:33;;;;;;;9.00;6.90;;;14.40;99.90;;;;;;7326546;32;20118;-62
2022/04/24 08:56:37;;;;;;;10.15;7.07;;;15.10;99.90;;;;;;7324499;32;20618;-63
2022/04/24 09:00:43;;;;;;;7.28;6.35;;;15.60;99.90;;;;;;7309429;32;20107;-64
2022/04/24 09:04:45;;;;;;;7.53;6.80;;;16.40;99.90;;;;;;7316249;32;20141;-62
2022/04/24 09:08:47;;;;;;;9.45;6.82;;;17.10;99.20;;;;;;7315112;32;22098;-61
2022/04/24 09:13:03;;;;;;;7.57;6.32;;;17.30;96.30;;;;;;7304769;32;20099;-59
2022/04/24 09:17:19;;;;;;;9.90;7.05;;;17.90;92.70;;;;;;7310580;32;20210;-64
2022/04/24 09:21:21;;;;;;;8.80;7.50;;;16.80;94.10;;;;;;7318390;32;20099;-62
2022/04/24 09:25:38;;;;;;;9.27;6.90;;;17.40;92.00;;;;;;7313786;32;20244;-64
2022/04/24 09:29:40;;;;;;;8.15;7.28;;;17.60;93.10;;;;;;7311870;32;20115;-62
2022/04/24 09:33:43;;;;;;;9.82;6.93;;;17.80;91.40;;;;;;7318483;32;20118;-62
2022/04/24 09:37:44;;;;;;;10.23;7.72;;;17.70;90.40;;;;;;7318861;32;20107;-62
2022/04/24 09:41:47;;;;;;;9.43;7.45;;;17.60;91.40;;;;;;7319618;32;20108;-63
2022/04/24 09:45:51;;;;;;;9.98;7.78;;;18.20;89.80;;;;;;7315733;32;20107;-63
2022/04/24 09:49:53;;;;;;;9.73;8.20;;;18.10;89.60;;;;;;7322747;32;20115;-61
2022/04/24 09:54:00;;;;;;;8.98;7.55;;;18.10;86.00;;;;;;7323458;32;20096;-62
2022/04/24 09:58:02;;;;;;;9.55;8.25;;;18.60;86.70;;;;;;7320290;32;20122;-62
2022/04/24 10:02:05;;;;;;;11.38;8.18;;;18.20;83.70;;;;;;7317248;32;20166;-63
2022/04/24 10:06:10;;;;;;;10.60;7.80;;;18.30;84.00;;;;;;7322301;32;20911;-62
2022/04/24 10:10:12;;;;;;;9.32;7.72;;;18.40;85.30;;;;;;7321436;32;20099;-62
2022/04/24 10:14:17;;;;;;;9.55;7.30;;;18.90;83.90;;;;;;7319507;32;20138;-62
2022/04/24 10:18:30;;;;;;;9.15;8.10;;;18.60;83.40;;;;;;7316846;32;20120;-62
2022/04/24 10:22:37;;;;;;;10.13;8.43;;;18.60;81.30;;;;;;7315761;32;20099;-62
2022/04/24 10:26:39;;;;;;;8.73;7.82;;;18.30;79.50;;;;;;7317760;32;20590;-62
2022/04/24 10:30:41;;;;;;;11.85;7.80;;;18.50;79.20;;;;;;7319970;32;20099;-63
2022/04/24 10:34:43;;;;;;;8.82;7.90;;;18.00;81.50;;;;;;7321022;32;20112;-62
2022/04/24 10:38:53;;;;;;;9.50;8.57;;;18.60;80.90;;;;;;7319157;32;20228;-62
2022/04/24 10:43:21;;;;;;;8.60;7.70;;;18.40;78.80;;;;;;7320361;32;20230;-62
2022/04/24 10:47:22;;;;;;;10.75;8.70;;;18.20;83.60;;;;;;7316541;32;20131;-63
2022/04/24 10:51:32;;;;;;;9.07;7.85;;;18.30;79.90;;;;;;7322164;32;20750;-62
2022/04/24 10:55:34;;;;;;;8.95;7.97;;;18.10;80.70;;;;;;7314123;32;20100;-62
2022/04/24 10:59:51;;;;;;;9.43;8.23;;;17.90;82.20;;;;;;7319861;32;20507;-63
2022/04/24 11:04:03;;;;;;;9.02;7.68;;;18.40;83.90;;;;;;7309689;32;20108;-61
2022/04/24 11:08:06;;;;;;;10.70;7.55;;;17.90;78.60;;;;;;7308416;32;20134;-64
2022/04/24 11:12:10;;;;;;;9.50;8.13;;;17.70;80.10;;;;;;7316937;32;20122;-63
2022/04/24 11:16:13;;;;;;;12.07;7.50;;;17.20;85.90;;;;;;7321925;32;20624;-61
2022/04/24 11:20:16;;;;;;;9.10;7.40;;;17.50;86.00;;;;;;7321095;32;20122;-61
2022/04/24 11:24:18;;;;;;;7.35;6.60;;;17.50;84.00;;;;;;7319899;32;20198;-62
2022/04/24 11:28:19;;;;;;;9.07;7.57;;;17.70;84.70;;;;;;7320262;32;20130;-63
2022/04/24 11:32:21;;;;;;;8.55;6.40;;;17.60;79.00;;;;;;7320093;32;20104;-63
2022/04/24 11:36:30;;;;;;;8.68;7.78;;;17.80;82.20;;;;;;7322863;32;20139;-63
2022/04/24 11:40:39;;;;;;;9.20;8.02;;;17.70;84.30;;;;;;7322906;32;20096;-62
2022/04/24 11:53:31;;;;;;;7.78;6.93;;;17.70;77.20;;;;;;7319059;32;20099;-62
2022/04/24 11:57:33;;;;;;;12.25;7.43;;;17.90;80.90;;;;;;7319475;32;20334;-63
2022/04/24 12:01:35;;;;;;;9.20;7.37;;;18.00;78.50;;;;;;7320007;32;20232;-57
2022/04/24 12:05:37;;;;;;;9.82;6.97;;;18.20;80.60;;;;;;7317469;32;20190;-58
2022/04/24 12:09:38;;;;;;;8.80;6.75;;;18.10;76.10;;;;;;7320261;32;20557;-57
2022/04/24 12:13:40;;;;;;;9.90;6.68;;;17.90;76.80;;;;;;7315564;32;20563;-57
2022/04/24 12:17:50;;;;;;;7.32;6.55;;;17.70;77.40;;;;;;7317058;32;22042;-57
2022/04/24 12:21:52;;;;;;;10.63;6.47;;;17.70;74.60;;;;;;7316438;32;20159;-58
2022/04/24 12:25:56;;;;;;;6.40;5.18;;;18.20;77.40;;;;;;7317314;32;20095;-58
2022/04/24 12:30:02;;;;;;;7.62;4.47;;;18.30;72.20;;;;;;7315680;32;20235;-57
2022/04/24 12:34:03;;;;;;;6.93;5.25;;;18.40;67.70;;;;;;7319360;32;20460;-58
2022/04/24 12:38:16;;;;;;;6.87;5.65;;;18.40;69.10;;;;;;7315586;32;20100;-57
2022/04/24 12:42:19;;;;;;;7.45;6.03;;;18.70;71.20;;;;;;7318494;32;20440;-57
2022/04/24 12:46:21;;;;;;;7.18;5.93;;;18.60;71.90;;;;;;7315317;32;20434;-57
2022/04/24 12:50:23;;;;;;;7.18;6.28;;;18.20;71.50;;;;;;7314431;32;20194;-57
2022/04/24 12:54:25;;;;;;;10.65;7.40;;;18.00;73.60;;;;;;7317206;32;20185;-61
2022/04/24 12:58:27;;;;;;;7.78;6.35;;;18.10;70.50;;;;;;7314084;32;20615;-61
2022/04/24 13:02:30;;;;;;;6.00;5.40;;;18.10;75.00;;;;;;7320580;32;20683;-62
2022/04/24 13:06:32;;;;;;;8.10;5.97;;;18.30;72.40;;;;;;7316704;32;20204;-62
2022/04/24 13:10:34;;;;;;;7.62;6.50;;;18.40;73.30;;;;;;7319293;32;20484;-63
2022/04/24 13:14:36;;;;;;;9.75;6.55;;;18.40;70.70;;;;;;7319916;32;20099;-63
2022/04/24 13:18:38;;;;;;;7.78;6.22;;;17.90;70.30;;;;;;7319228;32;20481;-63
2022/04/24 13:22:40;;;;;;;9.13;6.00;;;17.50;74.00;;;;;;7319923;32;20199;-61
2022/04/24 13:26:42;;;;;;;9.23;5.85;;;17.20;79.40;;;;;;7319310;32;20107;-62
2022/04/24 13:30:46;;;;;;;6.72;5.90;;;17.20;77.00;;;;;;7319308;32;20227;-63
2022/04/24 13:34:48;;;;;;;6.20;5.60;;;16.80;75.70;;;;;;7319519;32;20136;-62
2022/04/24 13:38:50;;;;;;;6.65;5.70;;;16.90;77.60;;;;;;7319493;32;20526;-62
2022/04/24 13:42:51;;;;;;;6.15;5.55;;;17.30;78.30;;;;;;7319412;32;20126;-61
2022/04/24 13:46:53;;;;;;;6.12;5.32;;;17.90;72.20;;;;;;7319674;32;20095;-63
2022/04/24 13:50:55;;;;;;;6.30;5.40;;;17.90;69.40;;;;;;7318929;32;20099;-61
2022/04/24 13:54:57;;;;;;;7.05;5.20;;;18.00;72.10;;;;;;7319995;32;20436;-62
2022/04/24 13:58:59;;;;;;;6.22;5.28;;;18.30;72.30;;;;;;7318900;32;20193;-62
2022/04/24 14:03:03;;;;;;;8.77;5.40;;;18.20;70.60;;;;;;7319068;32;20267;-62
2022/04/24 14:07:06;;;;;;;6.30;5.53;;;18.20;73.00;;;;;;7319594;32;20506;-63
2022/04/24 14:11:10;;;;;;;7.37;5.20;;;18.20;70.50;;;;;;7319534;32;20587;-62
2022/04/24 14:15:13;;;;;;;7.12;4.85;;;17.60;69.90;;;;;;7319743;32;20103;-62
2022/04/24 14:19:15;;;;;;;6.57;5.37;;;17.60;72.70;;;;;;7320070;32;20531;-63
2022/04/24 14:23:20;;;;;;;7.12;5.28;;;17.50;72.20;;;;;;7324428;32;20213;-63
2022/04/24 14:27:22;;;;;;;6.00;5.07;;;17.40;73.60;;;;;;7321064;32;20116;-62
2022/04/24 14:31:26;;;;;;;10.02;5.80;;;17.30;73.80;;;;;;7323945;32;20334;-63
2022/04/24 14:35:28;;;;;;;5.55;4.50;;;17.50;73.20;;;;;;7323910;32;20264;-62
2022/04/24 14:39:30;;;;;;;4.57;3.95;;;17.40;73.70;;;;;;7323469;32;20129;-62
2022/04/24 14:43:31;;;;;;;7.50;5.62;;;17.60;73.60;;;;;;7324099;32;20137;-62
2022/04/24 14:56:14;;;;;;;6.00;5.28;;;18.00;68.50;;;;;;7319133;32;20126;-62
2022/04/24 15:00:16;;;;;;;5.68;4.40;;;17.80;68.60;;;;;;7318651;32;20780;-64
2022/04/24 15:04:18;;;;;;;5.28;4.78;;;17.80;71.20;;;;;;7314721;32;20321;-63
2022/04/24 15:08:20;;;;;;;6.57;4.55;;;17.70;69.60;;;;;;7312225;32;20359;-62
2022/04/24 15:12:22;;;;;;;5.12;4.10;;;17.90;69.20;;;;;;7319616;32;20138;-64
2022/04/24 15:16:24;;;;;;;5.72;4.10;;;17.90;71.60;;;;;;7318705;32;20482;-59
2022/04/24 15:20:26;;;;;;;5.30;3.90;;;17.70;70.70;;;;;;7321710;32;20429;-59
2022/04/24 15:24:27;;;;;;;5.47;4.40;;;17.50;69.80;;;;;;7316951;32;20214;-58
2022/04/24 15:28:29;;;;;;;8.40;4.22;;;17.50;71.70;;;;;;7320959;32;20253;-62
2022/04/24 15:32:31;;;;;;;5.80;4.50;;;17.10;72.30;;;;;;7315458;32;20112;-60
2022/04/24 15:36:32;;;;;;;7.70;4.65;;;16.80;75.50;;;;;;7319105;32;20492;-60
2022/04/24 15:40:34;;;;;;;4.62;3.87;;;16.70;76.80;;;;;;7312297;32;20394;-61
2022/04/24 15:48:57;;;;;;;10.65;4.30;;;16.90;77.60;;;;;;7319472;32;20104;-60
2022/04/24 15:52:58;;;;;;;6.55;4.10;;;16.80;77.70;;;;;;7321246;32;20205;-60
2022/04/24 15:57:00;;;;;;;5.85;4.18;;;16.70;77.50;;;;;;7321896;32;20126;-61
2022/04/24 16:01:02;;;;;;;6.22;4.03;;;16.90;78.10;;;;;;7320286;32;20243;-61
2022/04/24 16:05:06;;;;;;;8.02;3.70;;;16.90;77.50;;;;;;7311494;32;20124;-61
2022/04/24 16:09:07;;;;;;;4.32;3.83;;;17.00;76.50;;;;;;7320487;32;20091;-62
2022/04/24 16:13:09;;;;;;;6.37;4.07;;;16.90;76.50;;;;;;7314803;32;20153;-63
2022/04/24 16:17:11;;;;;;;4.75;3.92;;;16.80;77.90;;;;;;7311166;32;20103;-62
2022/04/24 16:21:12;;;;;;;4.10;3.60;;;16.70;78.30;;;;;;7315865;32;20677;-64
2022/04/24 16:25:15;;;;;;;4.97;4.47;;;16.60;80.20;;;;;;7317687;32;20762;-63
2022/04/24 16:29:55;;;;;;;5.68;3.87;;;16.50;80.10;;;;;;7314617;32;20119;-63
2022/04/24 16:33:41;;;;;;;7.12;3.42;;;16.50;79.80;;;;;;7317981;32;20226;-63
2022/04/24 16:37:42;;;;;;;3.92;3.20;;;16.50;83.30;;;;;;7315816;32;20214;-63
2022/04/24 16:41:44;;;;;;;4.82;3.72;;;16.20;81.30;;;;;;7318109;32;20122;-65
2022/04/24 16:45:46;;;;;;;8.23;3.50;;;16.30;82.30;;;;;;7315628;32;20709;-63
2022/04/24 16:49:48;;;;;;;5.12;3.80;;;16.30;81.20;;;;;;7313450;32;20190;-61
2022/04/24 17:02:31;;;;;;;4.85;4.07;;;16.10;81.10;;;;;;7314650;32;20546;-63
2022/04/24 17:06:33;;;;;;;5.82;3.67;;;16.10;81.30;;;;;;7314045;32;20347;-63
2022/04/24 17:10:35;;;;;;;4.62;3.37;;;16.10;82.40;;;;;;7315075;32;20807;-62
2022/04/24 17:14:44;;;;;;;5.37;3.40;;;16.00;83.60;;;;;;7313321;32;20160;-62
2022/04/24 17:18:48;;;;;;;4.20;3.60;;;15.90;81.10;;;;;;7302969;32;20192;-63
2022/04/24 17:22:51;;;;;;;5.15;3.28;;;15.90;80.10;;;;;;7311318;32;20116;-62
2022/04/24 17:26:54;;;;;;;5.78;3.78;;;15.80;81.50;;;;;;7317202;32;20123;-65
2022/04/24 17:30:56;;;;;;;5.28;3.62;;;15.70;82.30;;;;;;7316120;32;20500;-63
2022/04/24 17:34:58;;;;;;;4.45;3.70;;;15.70;83.00;;;;;;7311550;32;20411;-62
2022/04/24 17:39:00;;;;;;;6.35;3.20;;;15.70;83.70;;;;;;7311864;32;20504;-62
2022/04/24 17:43:02;;;;;;;5.85;3.37;;;15.60;84.50;;;;;;7313852;32;20161;-63
2022/04/24 17:47:04;;;;;;;5.25;3.75;;;15.40;85.00;;;;;;7311357;32;20192;-63
2022/04/24 17:51:08;;;;;;;3.92;2.72;;;15.40;86.10;;;;;;7317803;32;20176;-61
2022/04/24 17:55:10;;;;;;;7.07;3.60;;;15.20;86.10;;;;;;7319052;32;20264;-61
2022/04/24 17:59:12;;;;;;;4.93;2.78;;;15.00;87.90;;;;;;7322064;32;20203;-61
2022/04/24 18:03:14;;;;;;;4.60;2.90;;;14.90;89.20;;;;;;7318150;32;20117;-63
2022/04/24 18:07:17;;;;;;;5.20;3.10;;;14.80;90.00;;;;;;7316874;32;20104;-62
2022/04/24 18:11:19;;;;;;;5.78;3.00;;;14.80;89.10;;;;;;7323027;32;20887;-61
2022/04/24 18:15:21;;;;;;;4.12;3.08;;;14.60;90.60;;;;;;7317657;32;20127;-60
2022/04/24 18:19:23;;;;;;;10.07;3.30;;;14.60;90.70;;;;;;7306761;32;20104;-61
2022/04/24 18:23:26;;;;;;;5.57;3.03;;;14.40;90.70;;;;;;7320792;32;20099;-62
2022/04/24 18:27:28;;;;;;;9.07;4.90;;;14.30;91.40;;;;;;7318284;32;20307;-61
2022/04/24 18:31:30;;;;;;;5.40;2.80;;;14.20;93.20;;;;;;7320904;32;20186;-61
2022/04/24 18:37:35;;;;;;;3.40;2.90;;;14.00;95.20;;;;;;7322608;32;20242;-61
2022/04/24 18:39:54;;;;;;;7.15;3.17;;;13.90;94.80;;;;;;7318427;32;20376;-63
2022/04/24 18:43:59;;;;;;;7.03;2.65;;;13.80;95.70;;;;;;7310348;32;20130;-61
2022/04/24 18:48:01;;;;;;;5.18;3.35;;;13.60;98.50;;;;;;7313225;32;20103;-61
2022/04/24 18:52:02;;;;;;;5.20;2.72;;;13.60;98.00;;;;;;7320655;32;20125;-62
2022/04/24 18:56:05;;;;;;;6.20;2.72;;;13.40;99.90;;;;;;7318963;32;20107;-63
2022/04/24 19:00:07;;;;;;;8.60;2.75;;;13.30;99.90;;;;;;7316787;32;20128;-62
2022/04/24 19:08:49;;;;;;;7.80;2.95;;;12.90;99.90;;;;;;7265907;32;20728;-65
2022/04/24 19:12:53;;;;;;;5.62;2.83;;;12.70;99.90;;;;;;7285884;32;20613;-64
2022/04/24 19:16:54;;;;;;;6.75;2.83;;;12.50;99.90;;;;;;7319164;32;20142;-63
2022/04/24 19:20:56;;;;;;;3.75;2.72;;;12.40;99.90;;;;;;7317424;32;20138;-63
2022/04/24 19:24:58;;;;;;;4.45;2.87;;;12.30;99.90;;;;;;7315204;32;20111;-66
2022/04/24 19:28:59;;;;;;;4.47;3.03;;;12.20;99.90;;;;;;7318686;32;20212;-63
2022/04/24 19:33:01;;;;;;;6.80;3.15;;;12.10;99.90;;;;;;7317087;32;20625;-63
2022/04/24 19:37:03;;;;;;;6.15;2.70;;;12.00;99.90;;;;;;7310715;32;20104;-63
2022/04/24 19:41:05;;;;;;;4.65;3.10;;;11.80;99.90;;;;;;7320462;32;20765;-65
2022/04/24 19:45:07;;;;;;;5.12;3.55;;;11.70;99.90;;;;;;7320823;32;20144;-64
2022/04/24 19:49:22;;;;;;;7.95;3.28;;;11.70;99.90;;;;;;7317778;32;20882;-64
2022/04/24 19:53:24;;;;;;;6.12;3.35;;;11.70;99.90;;;;;;7304035;32;20591;-62
2022/04/24 19:57:26;;;;;;;7.43;3.60;;;11.80;99.90;;;;;;7318478;32;20126;-63
2022/04/24 20:01:28;;;;;;;7.57;3.55;;;11.80;99.90;;;;;;7308321;32;20178;-65
2022/04/24 20:05:35;;;;;;;5.82;3.55;;;11.80;99.90;;;;;;7315957;32;20184;-66
2022/04/24 20:09:37;;;;;;;5.78;3.37;;;11.70;99.90;;;;;;7318658;32;20484;-64
2022/04/24 20:13:38;;;;;;;5.45;3.45;;;11.70;99.90;;;;;;7314751;32;20119;-63
2022/04/24 20:17:40;;;;;;;5.10;3.15;;;11.60;99.90;;;;;;7311518;32;20202;-60
2022/04/24 20:21:42;;;;;;;6.35;3.70;;;11.70;99.90;;;;;;7312834;32;20206;-61
2022/04/24 20:25:46;;;;;;;11.18;7.30;;;11.70;99.90;;;;;;7310296;32;20127;-62
2022/04/24 20:29:48;;;;;;;7.03;3.72;;;11.60;99.90;;;;;;7317111;32;20146;-64
2022/04/24 20:33:54;;;;;;;6.97;3.80;;;11.60;99.90;;;;;;7310347;32;20103;-65
2022/04/24 20:37:56;;;;;;;8.23;3.62;;;11.60;99.90;;;;;;7315096;32;20122;-62
2022/04/24 20:41:57;;;;;;;5.37;4.05;;;11.70;99.90;;;;;;7316874;32;20121;-61
2022/04/24 20:45:59;;;;;;;5.45;3.45;;;11.60;99.90;;;;;;7304034;32;20206;-62
2022/04/24 20:50:01;;;;;;;5.87;3.40;;;11.60;99.90;;;;;;7306411;32;20646;-63
2022/04/24 20:54:03;;;;;;;7.47;3.80;;;11.60;99.90;;;;;;7309803;32;20900;-61
2022/04/24 20:58:05;;;;;;;10.02;3.95;;;11.60;99.90;;;;;;7311519;32;20226;-60
2022/04/24 21:02:13;;;;;;;8.63;3.90;;;11.60;99.90;;;;;;7315002;32;20119;-64
2022/04/24 21:06:14;;;;;;;7.35;4.07;;;11.60;99.90;;;;;;7313410;32;20709;-62
2022/04/24 21:10:17;;;;;;;4.22;3.45;;;11.60;99.90;;;;;;7304665;32;20138;-62
2022/04/24 21:14:19;;;;;;;6.35;3.50;;;11.60;99.90;;;;;;7311944;32;20104;-64
2022/04/24 21:18:41;;;;;;;6.30;4.32;;;11.60;99.90;;;;;;7313346;32;20196;-63
2022/04/24 21:22:42;;;;;;;7.68;3.70;;;11.50;99.90;;;;;;7304588;32;20198;-61
2022/04/24 21:26:44;;;;;;;7.07;4.15;;;11.40;99.90;;;;;;7306707;32;20182;-60
2022/04/24 21:30:46;;;;;;;11.20;4.18;;;11.40;99.90;;;;;;7307615;32;20195;-61
2022/04/24 21:34:47;;;;;;;7.37;3.90;;;11.30;99.90;;;;;;7313909;32;20262;-61
2022/04/24 21:38:50;;;;;;;4.70;3.33;;;11.30;99.90;;;;;;7303566;32;20358;-60
2022/04/24 21:42:51;;;;;;;5.45;3.17;;;11.20;99.90;;;;;;7326036;32;20104;-59